sensor_id;sensor_type;location;lat;lon;timestamp;P1;durP1;ratioP1;P2;durP2;ratioP2
15624;SDS011;7912;51.376;6.126;2023-10-31T00:00:48;3.07;;;2.40;;
15624;SDS011;7912;51.376;6.126;2023-10-31T00:03:18;3.00;;;2.67;;
15624;SDS011;7912;51.376;6.126;2023-10-31T00:05:48;3.47;;;3.20;;
15624;SDS011;7912;51.376;6.126;2023-10-31T00:08:16;4.60;;;4.20;;
15624;SDS011;7912;51.376;6.126;2023-10-31T00:10:43;4.60;;;4.30;;
15624;SDS011;7912;51.376;6.126;2023-10-31T00:13:11;5.97;;;5.50;;
15624;SDS011;7912;51.376;6.126;2023-10-31T00:15:45;6.20;;;5.70;;
15624;SDS011;7912;51.376;6.126;2023-10-31T00:18:17;6.90;;;6.37;;
15624;SDS011;7912;51.376;6.126;2023-10-31T00:20:45;6.67;;;6.07;;
15624;SDS011;7912;51.376;6.126;2023-10-31T00:23:13;7.33;;;6.73;;
15624;SDS011;7912;51.376;6.126;2023-10-31T00:25:41;7.17;;;6.57;;
15624;SDS011;7912;51.376;6.126;2023-10-31T00:28:09;7.27;;;6.60;;
15624;SDS011;7912;51.376;6.126;2023-10-31T00:30:36;8.50;;;7.80;;
15624;SDS011;7912;51.376;6.126;2023-10-31T00:33:04;7.47;;;6.87;;
15624;SDS011;7912;51.376;6.126;2023-10-31T00:35:31;6.87;;;6.37;;
15624;SDS011;7912;51.376;6.126;2023-10-31T00:37:59;7.40;;;6.70;;
15624;SDS011;7912;51.376;6.126;2023-10-31T00:40:26;6.63;;;6.13;;
15624;SDS011;7912;51.376;6.126;2023-10-31T00:42:53;6.37;;;5.87;;
15624;SDS011;7912;51.376;6.126;2023-10-31T00:45:22;6.40;;;5.90;;
15624;SDS011;7912;51.376;6.126;2023-10-31T00:47:50;6.17;;;5.67;;
15624;SDS011;7912;51.376;6.126;2023-10-31T00:50:17;6.30;;;5.70;;
15624;SDS011;7912;51.376;6.126;2023-10-31T00:52:45;6.50;;;6.00;;
15624;SDS011;7912;51.376;6.126;2023-10-31T00:55:13;5.67;;;5.17;;
15624;SDS011;7912;51.376;6.126;2023-10-31T00:57:40;5.73;;;5.03;;
15624;SDS011;7912;51.376;6.126;2023-10-31T01:00:07;6.17;;;4.90;;
15624;SDS011;7912;51.376;6.126;2023-10-31T01:02:36;5.57;;;4.97;;
15624;SDS011;7912;51.376;6.126;2023-10-31T01:05:03;5.03;;;4.53;;
15624;SDS011;7912;51.376;6.126;2023-10-31T01:07:31;4.43;;;4.03;;
15624;SDS011;7912;51.376;6.126;2023-10-31T01:09:59;5.03;;;4.43;;
15624;SDS011;7912;51.376;6.126;2023-10-31T01:12:26;4.67;;;4.20;;
15624;SDS011;7912;51.376;6.126;2023-10-31T01:14:54;4.10;;;3.70;;
15624;SDS011;7912;51.376;6.126;2023-10-31T01:17:21;5.13;;;4.40;;
15624;SDS011;7912;51.376;6.126;2023-10-31T01:19:49;5.77;;;4.47;;
15624;SDS011;7912;51.376;6.126;2023-10-31T01:22:16;6.03;;;4.47;;
15624;SDS011;7912;51.376;6.126;2023-10-31T01:24:44;5.37;;;4.87;;
15624;SDS011;7912;51.376;6.126;2023-10-31T01:27:11;5.50;;;4.70;;
15624;SDS011;7912;51.376;6.126;2023-10-31T01:29:38;5.83;;;5.23;;
15624;SDS011;7912;51.376;6.126;2023-10-31T01:32:06;6.80;;;4.93;;
15624;SDS011;7912;51.376;6.126;2023-10-31T01:34:47;5.90;;;5.23;;
15624;SDS011;7912;51.376;6.126;2023-10-31T01:37:15;6.17;;;5.30;;
15624;SDS011;7912;51.376;6.126;2023-10-31T01:39:42;7.83;;;4.90;;
15624;SDS011;7912;51.376;6.126;2023-10-31T01:42:09;7.70;;;5.93;;
15624;SDS011;7912;51.376;6.126;2023-10-31T01:44:40;8.20;;;6.77;;
15624;SDS011;7912;51.376;6.126;2023-10-31T01:47:08;8.73;;;7.80;;
15624;SDS011;7912;51.376;6.126;2023-10-31T01:49:36;7.90;;;7.10;;
15624;SDS011;7912;51.376;6.126;2023-10-31T01:52:07;8.63;;;7.73;;
15624;SDS011;7912;51.376;6.126;2023-10-31T01:54:34;8.37;;;7.57;;
15624;SDS011;7912;51.376;6.126;2023-10-31T01:57:02;8.90;;;7.87;;
15624;SDS011;7912;51.376;6.126;2023-10-31T01:59:32;9.23;;;8.37;;
15624;SDS011;7912;51.376;6.126;2023-10-31T02:01:59;9.30;;;8.50;;
15624;SDS011;7912;51.376;6.126;2023-10-31T02:04:28;9.73;;;8.03;;
15624;SDS011;7912;51.376;6.126;2023-10-31T02:06:56;10.53;;;8.43;;
15624;SDS011;7912;51.376;6.126;2023-10-31T02:09:23;8.27;;;7.47;;
15624;SDS011;7912;51.376;6.126;2023-10-31T02:11:53;10.27;;;8.40;;
15624;SDS011;7912;51.376;6.126;2023-10-31T02:14:21;8.63;;;7.73;;
15624;SDS011;7912;51.376;6.126;2023-10-31T02:16:50;9.13;;;8.23;;
15624;SDS011;7912;51.376;6.126;2023-10-31T02:19:21;7.93;;;7.10;;
15624;SDS011;7912;51.376;6.126;2023-10-31T02:21:48;10.50;;;8.07;;
15624;SDS011;7912;51.376;6.126;2023-10-31T02:24:15;9.00;;;7.53;;
15624;SDS011;7912;51.376;6.126;2023-10-31T02:26:43;8.10;;;7.00;;
15624;SDS011;7912;51.376;6.126;2023-10-31T02:29:10;8.73;;;7.50;;
15624;SDS011;7912;51.376;6.126;2023-10-31T02:31:37;7.93;;;7.10;;
15624;SDS011;7912;51.376;6.126;2023-10-31T02:34:05;8.93;;;7.50;;
15624;SDS011;7912;51.376;6.126;2023-10-31T02:36:32;7.93;;;7.23;;
15624;SDS011;7912;51.376;6.126;2023-10-31T02:39:03;7.47;;;6.50;;
15624;SDS011;7912;51.376;6.126;2023-10-31T02:41:31;9.47;;;7.37;;
15624;SDS011;7912;51.376;6.126;2023-10-31T02:43:58;7.50;;;6.67;;
15624;SDS011;7912;51.376;6.126;2023-10-31T02:46:25;7.50;;;6.70;;
15624;SDS011;7912;51.376;6.126;2023-10-31T02:48:53;7.97;;;6.47;;
15624;SDS011;7912;51.376;6.126;2023-10-31T02:51:20;7.83;;;6.63;;
15624;SDS011;7912;51.376;6.126;2023-10-31T02:53:47;7.00;;;6.13;;
15624;SDS011;7912;51.376;6.126;2023-10-31T02:56:18;7.57;;;5.73;;
15624;SDS011;7912;51.376;6.126;2023-10-31T02:58:49;7.47;;;5.87;;
15624;SDS011;7912;51.376;6.126;2023-10-31T03:01:17;6.77;;;5.73;;
15624;SDS011;7912;51.376;6.126;2023-10-31T03:03:49;6.40;;;5.80;;
15624;SDS011;7912;51.376;6.126;2023-10-31T03:06:18;6.83;;;6.07;;
15624;SDS011;7912;51.376;6.126;2023-10-31T03:08:46;6.23;;;5.63;;
15624;SDS011;7912;51.376;6.126;2023-10-31T03:11:23;8.30;;;6.23;;
15624;SDS011;7912;51.376;6.126;2023-10-31T03:13:51;7.10;;;6.40;;
15624;SDS011;7912;51.376;6.126;2023-10-31T03:16:23;9.07;;;6.97;;
15624;SDS011;7912;51.376;6.126;2023-10-31T03:18:51;7.00;;;6.30;;
15624;SDS011;7912;51.376;6.126;2023-10-31T03:21:19;8.67;;;7.07;;
15624;SDS011;7912;51.376;6.126;2023-10-31T03:23:47;9.37;;;7.07;;
15624;SDS011;7912;51.376;6.126;2023-10-31T03:26:16;8.17;;;7.37;;
15624;SDS011;7912;51.376;6.126;2023-10-31T03:28:43;8.87;;;7.57;;
15624;SDS011;7912;51.376;6.126;2023-10-31T03:31:11;8.03;;;7.00;;
15624;SDS011;7912;51.376;6.126;2023-10-31T03:33:41;8.97;;;7.97;;
15624;SDS011;7912;51.376;6.126;2023-10-31T03:36:08;8.17;;;7.37;;
15624;SDS011;7912;51.376;6.126;2023-10-31T03:38:36;8.03;;;7.23;;
15624;SDS011;7912;51.376;6.126;2023-10-31T03:41:04;8.07;;;7.03;;
15624;SDS011;7912;51.376;6.126;2023-10-31T03:43:32;8.47;;;7.53;;
15624;SDS011;7912;51.376;6.126;2023-10-31T03:45:59;8.57;;;7.67;;
15624;SDS011;7912;51.376;6.126;2023-10-31T03:48:27;8.33;;;7.47;;
15624;SDS011;7912;51.376;6.126;2023-10-31T03:50:54;8.70;;;7.27;;
15624;SDS011;7912;51.376;6.126;2023-10-31T03:53:22;8.33;;;7.50;;
15624;SDS011;7912;51.376;6.126;2023-10-31T03:55:49;8.43;;;7.53;;
15624;SDS011;7912;51.376;6.126;2023-10-31T03:58:19;8.27;;;7.43;;
15624;SDS011;7912;51.376;6.126;2023-10-31T04:00:47;8.10;;;7.30;;
15624;SDS011;7912;51.376;6.126;2023-10-31T04:03:14;10.13;;;7.93;;
15624;SDS011;7912;51.376;6.126;2023-10-31T04:05:42;8.87;;;7.40;;
15624;SDS011;7912;51.376;6.126;2023-10-31T04:08:09;8.63;;;7.67;;
15624;SDS011;7912;51.376;6.126;2023-10-31T04:10:37;7.97;;;7.10;;
15624;SDS011;7912;51.376;6.126;2023-10-31T04:13:04;8.07;;;7.10;;
15624;SDS011;7912;51.376;6.126;2023-10-31T04:15:31;8.93;;;8.03;;
15624;SDS011;7912;51.376;6.126;2023-10-31T04:18:01;8.97;;;8.17;;
15624;SDS011;7912;51.376;6.126;2023-10-31T04:20:28;9.03;;;8.20;;
15624;SDS011;7912;51.376;6.126;2023-10-31T04:22:57;9.23;;;8.33;;
15624;SDS011;7912;51.376;6.126;2023-10-31T04:25:25;8.77;;;7.83;;
15624;SDS011;7912;51.376;6.126;2023-10-31T04:27:53;9.10;;;8.20;;
15624;SDS011;7912;51.376;6.126;2023-10-31T04:30:20;8.97;;;8.07;;
15624;SDS011;7912;51.376;6.126;2023-10-31T04:32:48;9.93;;;8.87;;
15624;SDS011;7912;51.376;6.126;2023-10-31T04:35:15;10.37;;;8.83;;
15624;SDS011;7912;51.376;6.126;2023-10-31T04:37:43;9.20;;;8.40;;
15624;SDS011;7912;51.376;6.126;2023-10-31T04:40:10;9.63;;;8.73;;
15624;SDS011;7912;51.376;6.126;2023-10-31T04:42:39;9.87;;;8.27;;
15624;SDS011;7912;51.376;6.126;2023-10-31T04:45:07;9.07;;;8.17;;
15624;SDS011;7912;51.376;6.126;2023-10-31T04:47:35;8.80;;;8.00;;
15624;SDS011;7912;51.376;6.126;2023-10-31T04:50:03;8.90;;;7.90;;
15624;SDS011;7912;51.376;6.126;2023-10-31T04:52:33;7.37;;;6.67;;
15624;SDS011;7912;51.376;6.126;2023-10-31T04:55:01;7.70;;;7.00;;
15624;SDS011;7912;51.376;6.126;2023-10-31T04:57:28;7.60;;;6.90;;
15624;SDS011;7912;51.376;6.126;2023-10-31T04:59:57;7.80;;;7.00;;
15624;SDS011;7912;51.376;6.126;2023-10-31T05:02:25;7.80;;;7.10;;
15624;SDS011;7912;51.376;6.126;2023-10-31T05:04:55;6.83;;;6.23;;
15624;SDS011;7912;51.376;6.126;2023-10-31T05:07:24;7.07;;;6.37;;
15624;SDS011;7912;51.376;6.126;2023-10-31T05:09:52;6.50;;;5.90;;
15624;SDS011;7912;51.376;6.126;2023-10-31T05:12:19;6.30;;;5.73;;
15624;SDS011;7912;51.376;6.126;2023-10-31T05:14:46;6.87;;;6.17;;
15624;SDS011;7912;51.376;6.126;2023-10-31T05:17:14;6.90;;;6.30;;
15624;SDS011;7912;51.376;6.126;2023-10-31T05:19:41;7.30;;;6.60;;
15624;SDS011;7912;51.376;6.126;2023-10-31T05:22:08;6.83;;;6.23;;
15624;SDS011;7912;51.376;6.126;2023-10-31T05:24:36;7.23;;;6.60;;
15624;SDS011;7912;51.376;6.126;2023-10-31T05:27:03;7.30;;;6.70;;
15624;SDS011;7912;51.376;6.126;2023-10-31T05:29:34;7.67;;;6.97;;
15624;SDS011;7912;51.376;6.126;2023-10-31T05:32:02;7.60;;;6.90;;
15624;SDS011;7912;51.376;6.126;2023-10-31T05:34:30;7.73;;;7.03;;
15624;SDS011;7912;51.376;6.126;2023-10-31T05:36:57;8.20;;;7.40;;
15624;SDS011;7912;51.376;6.126;2023-10-31T05:39:25;8.27;;;7.47;;
15624;SDS011;7912;51.376;6.126;2023-10-31T05:41:53;8.90;;;8.13;;
15624;SDS011;7912;51.376;6.126;2023-10-31T05:44:20;8.90;;;8.10;;
15624;SDS011;7912;51.376;6.126;2023-10-31T05:46:47;9.43;;;8.47;;
15624;SDS011;7912;51.376;6.126;2023-10-31T05:49:15;8.90;;;8.03;;
15624;SDS011;7912;51.376;6.126;2023-10-31T05:51:43;9.70;;;8.70;;
15624;SDS011;7912;51.376;6.126;2023-10-31T05:54:13;9.60;;;8.53;;
15624;SDS011;7912;51.376;6.126;2023-10-31T05:56:41;9.33;;;8.40;;
15624;SDS011;7912;51.376;6.126;2023-10-31T05:59:09;9.23;;;8.30;;
15624;SDS011;7912;51.376;6.126;2023-10-31T06:01:42;9.23;;;8.37;;
15624;SDS011;7912;51.376;6.126;2023-10-31T06:04:10;9.20;;;8.33;;
15624;SDS011;7912;51.376;6.126;2023-10-31T06:06:40;9.50;;;8.50;;
15624;SDS011;7912;51.376;6.126;2023-10-31T06:09:08;9.27;;;8.43;;
15624;SDS011;7912;51.376;6.126;2023-10-31T06:11:39;10.43;;;9.43;;
15624;SDS011;7912;51.376;6.126;2023-10-31T06:14:10;10.80;;;9.60;;
15624;SDS011;7912;51.376;6.126;2023-10-31T06:16:41;10.83;;;9.83;;
15624;SDS011;7912;51.376;6.126;2023-10-31T06:19:10;11.60;;;10.53;;
15624;SDS011;7912;51.376;6.126;2023-10-31T06:21:38;10.60;;;9.60;;
15624;SDS011;7912;51.376;6.126;2023-10-31T06:24:06;11.33;;;10.33;;
15624;SDS011;7912;51.376;6.126;2023-10-31T06:26:34;10.53;;;9.53;;
15624;SDS011;7912;51.376;6.126;2023-10-31T06:29:02;11.53;;;10.53;;
15624;SDS011;7912;51.376;6.126;2023-10-31T06:31:34;10.87;;;9.70;;
15624;SDS011;7912;51.376;6.126;2023-10-31T06:34:01;11.47;;;10.37;;
15624;SDS011;7912;51.376;6.126;2023-10-31T06:42:58;10.87;;;9.87;;
15624;SDS011;7912;51.376;6.126;2023-10-31T06:45:25;10.80;;;9.80;;
15624;SDS011;7912;51.376;6.126;2023-10-31T06:47:53;10.43;;;9.33;;
15624;SDS011;7912;51.376;6.126;2023-10-31T06:50:21;10.23;;;9.00;;
15624;SDS011;7912;51.376;6.126;2023-10-31T06:52:49;10.37;;;9.37;;
15624;SDS011;7912;51.376;6.126;2023-10-31T06:58:38;9.97;;;8.97;;
15624;SDS011;7912;51.376;6.126;2023-10-31T07:01:05;9.20;;;8.37;;
15624;SDS011;7912;51.376;6.126;2023-10-31T07:03:32;10.47;;;9.43;;
15624;SDS011;7912;51.376;6.126;2023-10-31T07:06:00;10.10;;;9.17;;
15624;SDS011;7912;51.376;6.126;2023-10-31T07:08:28;10.70;;;9.70;;
15624;SDS011;7912;51.376;6.126;2023-10-31T07:10:56;11.47;;;10.27;;
15624;SDS011;7912;51.376;6.126;2023-10-31T07:13:27;11.07;;;10.07;;
15624;SDS011;7912;51.376;6.126;2023-10-31T07:15:54;10.10;;;9.17;;
15624;SDS011;7912;51.376;6.126;2023-10-31T07:18:22;10.53;;;9.53;;
15624;SDS011;7912;51.376;6.126;2023-10-31T07:20:50;10.60;;;9.60;;
15624;SDS011;7912;51.376;6.126;2023-10-31T07:23:17;11.93;;;10.20;;
15624;SDS011;7912;51.376;6.126;2023-10-31T07:25:44;10.03;;;9.03;;
15624;SDS011;7912;51.376;6.126;2023-10-31T07:28:12;11.67;;;9.77;;
15624;SDS011;7912;51.376;6.126;2023-10-31T07:30:41;10.37;;;9.37;;
15624;SDS011;7912;51.376;6.126;2023-10-31T07:33:09;10.70;;;9.60;;
15624;SDS011;7912;51.376;6.126;2023-10-31T07:35:39;10.67;;;9.57;;
15624;SDS011;7912;51.376;6.126;2023-10-31T07:38:07;8.53;;;7.67;;
15624;SDS011;7912;51.376;6.126;2023-10-31T07:40:34;9.13;;;8.33;;
15624;SDS011;7912;51.376;6.126;2023-10-31T07:43:02;9.70;;;8.80;;
15624;SDS011;7912;51.376;6.126;2023-10-31T07:45:30;9.67;;;8.40;;
15624;SDS011;7912;51.376;6.126;2023-10-31T07:47:57;8.87;;;8.07;;
15624;SDS011;7912;51.376;6.126;2023-10-31T07:50:25;8.70;;;7.90;;
15624;SDS011;7912;51.376;6.126;2023-10-31T07:52:52;8.53;;;7.73;;
15624;SDS011;7912;51.376;6.126;2023-10-31T07:55:20;8.53;;;7.73;;
15624;SDS011;7912;51.376;6.126;2023-10-31T07:57:55;8.30;;;7.60;;
15624;SDS011;7912;51.376;6.126;2023-10-31T08:00:23;8.17;;;7.47;;
15624;SDS011;7912;51.376;6.126;2023-10-31T08:02:51;8.13;;;7.27;;
15624;SDS011;7912;51.376;6.126;2023-10-31T08:05:22;7.23;;;6.63;;
15624;SDS011;7912;51.376;6.126;2023-10-31T08:07:49;8.00;;;7.20;;
15624;SDS011;7912;51.376;6.126;2023-10-31T08:10:17;8.00;;;7.30;;
15624;SDS011;7912;51.376;6.126;2023-10-31T08:12:44;7.50;;;6.90;;
15624;SDS011;7912;51.376;6.126;2023-10-31T08:15:15;8.10;;;7.30;;
15624;SDS011;7912;51.376;6.126;2023-10-31T08:17:46;8.77;;;8.00;;
15624;SDS011;7912;51.376;6.126;2023-10-31T08:20:13;8.67;;;7.27;;
15624;SDS011;7912;51.376;6.126;2023-10-31T08:22:44;8.77;;;7.53;;
15624;SDS011;7912;51.376;6.126;2023-10-31T08:25:12;9.73;;;7.80;;
15624;SDS011;7912;51.376;6.126;2023-10-31T08:27:42;8.27;;;7.47;;
15624;SDS011;7912;51.376;6.126;2023-10-31T08:30:10;8.17;;;7.37;;
15624;SDS011;7912;51.376;6.126;2023-10-31T08:32:38;8.57;;;7.77;;
15624;SDS011;7912;51.376;6.126;2023-10-31T08:35:06;8.77;;;7.87;;
15624;SDS011;7912;51.376;6.126;2023-10-31T08:37:34;8.20;;;7.40;;
15624;SDS011;7912;51.376;6.126;2023-10-31T08:40:02;9.30;;;8.40;;
15624;SDS011;7912;51.376;6.126;2023-10-31T08:42:31;8.80;;;8.00;;
15624;SDS011;7912;51.376;6.126;2023-10-31T08:48:44;9.50;;;7.83;;
15624;SDS011;7912;51.376;6.126;2023-10-31T08:51:14;9.00;;;8.20;;
15624;SDS011;7912;51.376;6.126;2023-10-31T08:53:44;10.57;;;9.50;;
15624;SDS011;7912;51.376;6.126;2023-10-31T08:56:11;10.03;;;9.07;;
15624;SDS011;7912;51.376;6.126;2023-10-31T08:58:39;10.27;;;9.27;;
15624;SDS011;7912;51.376;6.126;2023-10-31T09:01:07;10.37;;;9.37;;
15624;SDS011;7912;51.376;6.126;2023-10-31T09:03:35;10.60;;;9.60;;
15624;SDS011;7912;51.376;6.126;2023-10-31T09:06:03;10.17;;;9.20;;
15624;SDS011;7912;51.376;6.126;2023-10-31T09:08:30;10.93;;;9.87;;
15624;SDS011;7912;51.376;6.126;2023-10-31T09:11:00;11.07;;;10.00;;
15624;SDS011;7912;51.376;6.126;2023-10-31T09:13:29;10.87;;;9.83;;
15624;SDS011;7912;51.376;6.126;2023-10-31T09:16:00;10.70;;;9.70;;
15624;SDS011;7912;51.376;6.126;2023-10-31T09:18:37;9.87;;;8.87;;
15624;SDS011;7912;51.376;6.126;2023-10-31T09:21:05;11.30;;;10.30;;
15624;SDS011;7912;51.376;6.126;2023-10-31T09:23:33;10.53;;;9.53;;
15624;SDS011;7912;51.376;6.126;2023-10-31T09:26:00;11.37;;;9.23;;
15624;SDS011;7912;51.376;6.126;2023-10-31T09:28:29;11.07;;;10.07;;
15624;SDS011;7912;51.376;6.126;2023-10-31T09:30:56;10.83;;;9.73;;
15624;SDS011;7912;51.376;6.126;2023-10-31T09:33:26;9.97;;;9.00;;
15624;SDS011;7912;51.376;6.126;2023-10-31T09:35:54;11.73;;;10.07;;
15624;SDS011;7912;51.376;6.126;2023-10-31T09:38:21;10.37;;;9.27;;
15624;SDS011;7912;51.376;6.126;2023-10-31T09:40:55;9.00;;;8.10;;
15624;SDS011;7912;51.376;6.126;2023-10-31T09:43:22;9.60;;;8.60;;
15624;SDS011;7912;51.376;6.126;2023-10-31T09:45:50;9.27;;;8.37;;
15624;SDS011;7912;51.376;6.126;2023-10-31T09:48:19;8.70;;;7.90;;
15624;SDS011;7912;51.376;6.126;2023-10-31T09:50:50;9.00;;;8.03;;
15624;SDS011;7912;51.376;6.126;2023-10-31T09:53:19;8.83;;;7.90;;
15624;SDS011;7912;51.376;6.126;2023-10-31T09:55:47;9.63;;;7.33;;
15624;SDS011;7912;51.376;6.126;2023-10-31T09:58:15;9.13;;;8.00;;
15624;SDS011;7912;51.376;6.126;2023-10-31T10:00:47;8.10;;;7.30;;
15624;SDS011;7912;51.376;6.126;2023-10-31T10:03:17;7.60;;;6.90;;
15624;SDS011;7912;51.376;6.126;2023-10-31T10:05:45;7.77;;;6.97;;
15624;SDS011;7912;51.376;6.126;2023-10-31T10:08:14;10.37;;;7.20;;
15624;SDS011;7912;51.376;6.126;2023-10-31T10:10:44;7.80;;;6.23;;
15624;SDS011;7912;51.376;6.126;2023-10-31T10:13:22;8.33;;;6.60;;
15624;SDS011;7912;51.376;6.126;2023-10-31T10:15:51;7.17;;;6.47;;
15624;SDS011;7912;51.376;6.126;2023-10-31T10:18:26;6.97;;;6.07;;
15624;SDS011;7912;51.376;6.126;2023-10-31T10:21:01;6.50;;;5.90;;
15624;SDS011;7912;51.376;6.126;2023-10-31T10:23:34;8.07;;;6.33;;
15624;SDS011;7912;51.376;6.126;2023-10-31T10:26:02;6.93;;;5.87;;
15624;SDS011;7912;51.376;6.126;2023-10-31T10:28:32;5.73;;;5.00;;
15624;SDS011;7912;51.376;6.126;2023-10-31T10:31:01;8.83;;;5.97;;
15624;SDS011;7912;51.376;6.126;2023-10-31T10:33:29;6.70;;;5.60;;
15624;SDS011;7912;51.376;6.126;2023-10-31T10:35:56;6.03;;;5.23;;
15624;SDS011;7912;51.376;6.126;2023-10-31T10:38:25;6.20;;;5.60;;
15624;SDS011;7912;51.376;6.126;2023-10-31T10:44:07;6.07;;;4.73;;
15624;SDS011;7912;51.376;6.126;2023-10-31T10:46:38;6.60;;;4.73;;
15624;SDS011;7912;51.376;6.126;2023-10-31T10:49:07;5.30;;;4.60;;
15624;SDS011;7912;51.376;6.126;2023-10-31T10:54:18;5.37;;;4.87;;
15624;SDS011;7912;51.376;6.126;2023-10-31T11:03:56;4.57;;;4.17;;
15624;SDS011;7912;51.376;6.126;2023-10-31T11:09:51;4.70;;;4.03;;
15624;SDS011;7912;51.376;6.126;2023-10-31T11:12:19;7.07;;;4.10;;
15624;SDS011;7912;51.376;6.126;2023-10-31T11:14:49;5.30;;;4.13;;
15624;SDS011;7912;51.376;6.126;2023-10-31T11:17:22;4.00;;;3.60;;
15624;SDS011;7912;51.376;6.126;2023-10-31T11:19:55;5.27;;;3.90;;
15624;SDS011;7912;51.376;6.126;2023-10-31T11:22:23;5.00;;;3.90;;
15624;SDS011;7912;51.376;6.126;2023-10-31T11:24:51;4.53;;;3.90;;
15624;SDS011;7912;51.376;6.126;2023-10-31T11:32:59;4.90;;;3.40;;
15624;SDS011;7912;51.376;6.126;2023-10-31T11:35:35;3.90;;;3.43;;
15624;SDS011;7912;51.376;6.126;2023-10-31T11:38:10;4.37;;;3.00;;
15624;SDS011;7912;51.376;6.126;2023-10-31T11:43:16;5.30;;;3.20;;
15624;SDS011;7912;51.376;6.126;2023-10-31T11:45:44;4.17;;;3.10;;
15624;SDS011;7912;51.376;6.126;2023-10-31T11:48:14;3.40;;;3.20;;
15624;SDS011;7912;51.376;6.126;2023-10-31T11:50:42;6.60;;;3.20;;
15624;SDS011;7912;51.376;6.126;2023-10-31T11:53:15;3.43;;;3.13;;
15624;SDS011;7912;51.376;6.126;2023-10-31T11:55:44;3.17;;;2.87;;
15624;SDS011;7912;51.376;6.126;2023-10-31T11:58:17;3.20;;;2.70;;
15624;SDS011;7912;51.376;6.126;2023-10-31T12:01:01;3.63;;;2.83;;
15624;SDS011;7912;51.376;6.126;2023-10-31T12:06:34;3.23;;;2.80;;
15624;SDS011;7912;51.376;6.126;2023-10-31T12:09:01;3.23;;;2.60;;
15624;SDS011;7912;51.376;6.126;2023-10-31T12:11:31;3.80;;;3.00;;
15624;SDS011;7912;51.376;6.126;2023-10-31T12:14:00;3.07;;;2.77;;
15624;SDS011;7912;51.376;6.126;2023-10-31T12:16:33;4.63;;;3.00;;
15624;SDS011;7912;51.376;6.126;2023-10-31T12:19:02;2.90;;;2.70;;
15624;SDS011;7912;51.376;6.126;2023-10-31T12:24:17;3.20;;;2.80;;
15624;SDS011;7912;51.376;6.126;2023-10-31T12:26:45;4.13;;;3.00;;
15624;SDS011;7912;51.376;6.126;2023-10-31T12:31:50;3.03;;;2.53;;
15624;SDS011;7912;51.376;6.126;2023-10-31T12:34:21;3.87;;;2.80;;
15624;SDS011;7912;51.376;6.126;2023-10-31T12:36:51;2.93;;;2.50;;
15624;SDS011;7912;51.376;6.126;2023-10-31T12:39:21;3.67;;;2.80;;
15624;SDS011;7912;51.376;6.126;2023-10-31T12:41:52;2.43;;;2.13;;
15624;SDS011;7912;51.376;6.126;2023-10-31T12:44:22;4.17;;;2.50;;
15624;SDS011;7912;51.376;6.126;2023-10-31T12:46:54;2.93;;;2.43;;
15624;SDS011;7912;51.376;6.126;2023-10-31T12:49:22;2.77;;;2.13;;
15624;SDS011;7912;51.376;6.126;2023-10-31T12:51:57;3.63;;;2.50;;
15624;SDS011;7912;51.376;6.126;2023-10-31T12:54:36;3.47;;;2.20;;
15624;SDS011;7912;51.376;6.126;2023-10-31T12:57:08;4.70;;;2.03;;
15624;SDS011;7912;51.376;6.126;2023-10-31T12:59:37;4.90;;;2.40;;
15624;SDS011;7912;51.376;6.126;2023-10-31T13:02:05;2.90;;;2.00;;
15624;SDS011;7912;51.376;6.126;2023-10-31T13:04:35;3.10;;;2.00;;
15624;SDS011;7912;51.376;6.126;2023-10-31T13:07:04;2.70;;;1.90;;
15624;SDS011;7912;51.376;6.126;2023-10-31T13:09:35;3.13;;;1.63;;
15624;SDS011;7912;51.376;6.126;2023-10-31T13:12:06;2.13;;;1.80;;
15624;SDS011;7912;51.376;6.126;2023-10-31T13:14:35;2.97;;;1.60;;
15624;SDS011;7912;51.376;6.126;2023-10-31T13:17:06;2.50;;;1.50;;
15624;SDS011;7912;51.376;6.126;2023-10-31T13:19:33;1.63;;;1.53;;
15624;SDS011;7912;51.376;6.126;2023-10-31T13:22:00;2.67;;;1.50;;
15624;SDS011;7912;51.376;6.126;2023-10-31T13:24:28;2.77;;;1.40;;
15624;SDS011;7912;51.376;6.126;2023-10-31T13:26:55;3.00;;;1.80;;
15624;SDS011;7912;51.376;6.126;2023-10-31T13:29:22;3.47;;;1.60;;
15624;SDS011;7912;51.376;6.126;2023-10-31T13:31:54;2.40;;;1.90;;
15624;SDS011;7912;51.376;6.126;2023-10-31T13:34:22;2.73;;;1.90;;
15624;SDS011;7912;51.376;6.126;2023-10-31T13:36:50;3.33;;;1.90;;
15624;SDS011;7912;51.376;6.126;2023-10-31T13:39:20;2.17;;;1.80;;
15624;SDS011;7912;51.376;6.126;2023-10-31T13:41:48;3.03;;;1.70;;
15624;SDS011;7912;51.376;6.126;2023-10-31T13:44:15;2.47;;;1.77;;
15624;SDS011;7912;51.376;6.126;2023-10-31T13:46:43;2.70;;;1.53;;
15624;SDS011;7912;51.376;6.126;2023-10-31T13:49:12;3.57;;;1.40;;
15624;SDS011;7912;51.376;6.126;2023-10-31T13:51:40;2.80;;;1.53;;
15624;SDS011;7912;51.376;6.126;2023-10-31T13:54:08;1.70;;;1.30;;
15624;SDS011;7912;51.376;6.126;2023-10-31T13:56:35;2.67;;;1.70;;
15624;SDS011;7912;51.376;6.126;2023-10-31T13:59:02;2.50;;;1.50;;
15624;SDS011;7912;51.376;6.126;2023-10-31T14:01:30;2.13;;;1.60;;
15624;SDS011;7912;51.376;6.126;2023-10-31T14:03:57;2.13;;;1.60;;
15624;SDS011;7912;51.376;6.126;2023-10-31T14:06:25;2.40;;;1.77;;
15624;SDS011;7912;51.376;6.126;2023-10-31T14:08:57;3.70;;;1.90;;
15624;SDS011;7912;51.376;6.126;2023-10-31T14:11:26;2.47;;;1.60;;
15624;SDS011;7912;51.376;6.126;2023-10-31T14:13:57;3.10;;;1.60;;
15624;SDS011;7912;51.376;6.126;2023-10-31T14:16:29;4.73;;;2.20;;
15624;SDS011;7912;51.376;6.126;2023-10-31T14:18:59;2.13;;;1.80;;
15624;SDS011;7912;51.376;6.126;2023-10-31T14:21:28;4.47;;;1.87;;
15624;SDS011;7912;51.376;6.126;2023-10-31T14:27:03;2.37;;;1.80;;
15624;SDS011;7912;51.376;6.126;2023-10-31T14:29:31;4.00;;;1.83;;
15624;SDS011;7912;51.376;6.126;2023-10-31T14:32:08;4.03;;;1.80;;
15624;SDS011;7912;51.376;6.126;2023-10-31T14:34:36;4.90;;;1.90;;
15624;SDS011;7912;51.376;6.126;2023-10-31T14:37:03;1.90;;;1.57;;
15624;SDS011;7912;51.376;6.126;2023-10-31T14:39:33;3.37;;;1.90;;
15624;SDS011;7912;51.376;6.126;2023-10-31T14:42:01;3.50;;;1.80;;
15624;SDS011;7912;51.376;6.126;2023-10-31T14:44:28;2.40;;;1.70;;
15624;SDS011;7912;51.376;6.126;2023-10-31T14:46:56;3.83;;;1.83;;
15624;SDS011;7912;51.376;6.126;2023-10-31T14:49:24;2.20;;;1.83;;
15624;SDS011;7912;51.376;6.126;2023-10-31T14:51:51;3.03;;;1.80;;
15624;SDS011;7912;51.376;6.126;2023-10-31T14:54:19;4.57;;;2.10;;
15624;SDS011;7912;51.376;6.126;2023-10-31T14:56:46;3.00;;;2.10;;
15624;SDS011;7912;51.376;6.126;2023-10-31T14:59:14;4.37;;;2.03;;
15624;SDS011;7912;51.376;6.126;2023-10-31T15:01:41;3.23;;;2.10;;
15624;SDS011;7912;51.376;6.126;2023-10-31T15:04:08;3.70;;;1.90;;
15624;SDS011;7912;51.376;6.126;2023-10-31T15:06:37;3.57;;;2.10;;
15624;SDS011;7912;51.376;6.126;2023-10-31T15:09:05;3.90;;;2.07;;
15624;SDS011;7912;51.376;6.126;2023-10-31T15:11:33;2.83;;;1.90;;
15624;SDS011;7912;51.376;6.126;2023-10-31T15:14:00;4.00;;;1.83;;
15624;SDS011;7912;51.376;6.126;2023-10-31T15:16:29;4.63;;;2.10;;
15624;SDS011;7912;51.376;6.126;2023-10-31T15:18:57;3.80;;;1.70;;
15624;SDS011;7912;51.376;6.126;2023-10-31T15:21:26;4.03;;;2.30;;
15624;SDS011;7912;51.376;6.126;2023-10-31T15:23:53;4.93;;;2.20;;
15624;SDS011;7912;51.376;6.126;2023-10-31T15:26:24;5.13;;;2.03;;
15624;SDS011;7912;51.376;6.126;2023-10-31T15:28:55;5.00;;;2.27;;
15624;SDS011;7912;51.376;6.126;2023-10-31T15:31:23;4.03;;;2.30;;
15624;SDS011;7912;51.376;6.126;2023-10-31T15:33:50;2.80;;;2.17;;
15624;SDS011;7912;51.376;6.126;2023-10-31T15:36:18;3.30;;;2.20;;
15624;SDS011;7912;51.376;6.126;2023-10-31T15:38:47;2.67;;;2.10;;
15624;SDS011;7912;51.376;6.126;2023-10-31T15:41:16;3.13;;;2.17;;
15624;SDS011;7912;51.376;6.126;2023-10-31T15:43:45;4.70;;;2.30;;
15624;SDS011;7912;51.376;6.126;2023-10-31T15:46:13;3.40;;;2.40;;
15624;SDS011;7912;51.376;6.126;2023-10-31T15:48:51;2.20;;;2.00;;
15624;SDS011;7912;51.376;6.126;2023-10-31T15:51:20;3.77;;;2.10;;
15624;SDS011;7912;51.376;6.126;2023-10-31T15:53:55;3.80;;;2.20;;
15624;SDS011;7912;51.376;6.126;2023-10-31T15:56:23;4.53;;;2.00;;